createdAt,value
2017-02-17T00:00:01.356Z,25.19
2017-02-17T00:00:15.907Z,25.12
2017-02-17T00:00:30.524Z,25.12
2017-02-17T00:00:45.626Z,25.09
2017-02-17T00:01:00.275Z,25.15
2017-02-17T00:01:14.821Z,25.2
2017-02-17T00:01:29.403Z,25.2
2017-02-17T00:01:43.968Z,25.3
2017-02-17T00:01:58.574Z,25.29
2017-02-17T00:02:13.183Z,25.33
2017-02-17T00:02:27.791Z,25.39
2017-02-17T00:02:42.406Z,25.37
2017-02-17T00:02:57.032Z,25.3
2017-02-17T00:03:11.874Z,25.34
2017-02-17T00:03:26.454Z,25.37
2017-02-17T00:03:41.104Z,25.33
2017-02-17T00:03:55.696Z,25.34
2017-02-17T00:04:10.319Z,25.37
2017-02-17T00:04:24.879Z,25.38
2017-02-17T00:04:39.474Z,25.39
2017-02-17T00:04:54.096Z,25.32
2017-02-17T00:05:08.689Z,25.32
2017-02-17T00:05:23.251Z,25.34
2017-02-17T00:05:37.899Z,25.29
2017-02-17T00:05:52.468Z,25.33
2017-02-17T00:06:07.131Z,25.33
2017-02-17T00:06:21.745Z,25.33
2017-02-17T00:06:36.326Z,25.33
2017-02-17T00:06:50.939Z,25.39
2017-02-17T00:07:05.540Z,25.33
2017-02-17T00:07:20.144Z,25.32
2017-02-17T00:07:34.696Z,25.32
2017-02-17T00:07:49.318Z,25.33
2017-02-17T00:08:03.933Z,25.32
2017-02-17T00:08:18.497Z,25.27
2017-02-17T00:08:33.065Z,25.29
2017-02-17T00:08:47.656Z,25.3
2017-02-17T00:09:02.256Z,25.34
2017-02-17T00:09:16.855Z,25.15
2017-02-17T00:09:31.450Z,25.3
2017-02-17T00:09:46.000Z,25.2
2017-02-17T00:10:00.688Z,25.2
2017-02-17T00:10:15.284Z,25.17
2017-02-17T00:10:29.860Z,25.2
2017-02-17T00:10:44.461Z,25.2
2017-02-17T00:10:59.039Z,25.2
2017-02-17T00:11:14.399Z,25.14
2017-02-17T00:11:29.504Z,25.14
2017-02-17T00:11:44.130Z,25.15
2017-02-17T00:11:58.770Z,25.17
2017-02-17T00:12:13.346Z,25.22
2017-02-17T00:12:27.951Z,25.14
2017-02-17T00:12:42.537Z,25.22
2017-02-17T00:12:57.174Z,25.22
2017-02-17T00:13:11.787Z,25.2
2017-02-17T00:13:26.390Z,25.2
2017-02-17T00:13:40.930Z,25.24
2017-02-17T00:13:55.531Z,25.2
2017-02-17T00:14:10.083Z,25.17
2017-02-17T00:14:24.691Z,25.19
2017-02-17T00:14:39.222Z,25.19
2017-02-17T00:14:53.744Z,25.12
2017-02-17T00:15:08.397Z,25.14
2017-02-17T00:15:23.027Z,25.14
2017-02-17T00:15:37.659Z,25.11
2017-02-17T00:15:52.264Z,25.09
2017-02-17T00:16:06.832Z,25.11
2017-02-17T00:16:21.365Z,25.11
2017-02-17T00:16:36.003Z,25.02
2017-02-17T00:16:50.571Z,25.07
2017-02-17T00:17:05.208Z,25.15
2017-02-17T00:17:19.848Z,25.05
2017-02-17T00:17:34.436Z,25.11
2017-02-17T00:17:49.036Z,25.07
2017-02-17T00:18:03.573Z,25.05
2017-02-17T00:18:18.379Z,25.09
2017-02-17T00:18:32.939Z,25.02
2017-02-17T00:18:47.567Z,25.05
2017-02-17T00:19:02.145Z,25.07
2017-02-17T00:19:16.729Z,25.05
2017-02-17T00:19:31.319Z,25.12
2017-02-17T00:19:45.903Z,25.07
2017-02-17T00:20:00.513Z,25.08
2017-02-17T00:20:15.041Z,25.07
2017-02-17T00:20:29.670Z,25.12
2017-02-17T00:20:44.283Z,25.04
2017-02-17T00:20:58.805Z,25.02
2017-02-17T00:21:13.407Z,25.01
2017-02-17T00:21:28.030Z,25.09
2017-02-17T00:21:42.646Z,25.14
2017-02-17T00:21:57.179Z,25.11
2017-02-17T00:22:11.774Z,25.02
2017-02-17T00:22:26.370Z,25.08
2017-02-17T00:22:41.873Z,25.08
2017-02-17T00:22:56.932Z,25.08
2017-02-17T00:23:11.520Z,25.07
2017-02-17T00:23:26.140Z,25.04
2017-02-17T00:23:40.709Z,25.05
2017-02-17T00:23:55.269Z,25.04
2017-02-17T00:24:09.896Z,25.12
2017-02-17T00:24:24.550Z,25.05
2017-02-17T00:24:39.132Z,25.08
2017-02-17T00:24:53.738Z,25.05
2017-02-17T00:25:08.311Z,25.02
2017-02-17T00:25:22.915Z,25.05
2017-02-17T00:25:37.503Z,25.01
2017-02-17T00:25:52.137Z,25.01
2017-02-17T00:26:06.681Z,25.02
2017-02-17T00:26:21.363Z,25
2017-02-17T00:26:35.946Z,25
2017-02-17T00:26:50.515Z,24.94
2017-02-17T00:27:05.139Z,25.01
2017-02-17T00:27:19.745Z,24.92
2017-02-17T00:27:34.300Z,24.97
2017-02-17T00:27:48.912Z,25
2017-02-17T00:28:03.448Z,25
2017-02-17T00:28:18.061Z,24.94
2017-02-17T00:28:32.605Z,24.93
2017-02-17T00:28:47.179Z,24.94
2017-02-17T00:29:01.817Z,24.93
2017-02-17T00:29:16.438Z,24.96
2017-02-17T00:29:31.065Z,24.9
2017-02-17T00:29:45.623Z,24.93
2017-02-17T00:30:00.183Z,25
2017-02-17T00:30:14.739Z,24.9
2017-02-17T00:30:29.309Z,24.94
2017-02-17T00:30:43.982Z,24.96
2017-02-17T00:30:58.591Z,24.87
2017-02-17T00:31:13.170Z,24.97
2017-02-17T00:31:27.698Z,24.97
2017-02-17T00:31:42.272Z,24.93
2017-02-17T00:31:56.855Z,24.93
2017-02-17T00:32:11.381Z,24.96
2017-02-17T00:32:25.954Z,24.96
2017-02-17T00:32:40.528Z,24.9
2017-02-17T00:32:55.113Z,24.89
2017-02-17T00:33:09.670Z,24.93
2017-02-17T00:33:24.433Z,24.96
2017-02-17T00:33:38.977Z,24.94
2017-02-17T00:33:53.570Z,24.96
2017-02-17T00:34:08.150Z,24.93
2017-02-17T00:34:22.774Z,24.96
2017-02-17T00:34:37.403Z,24.93
2017-02-17T00:34:52.030Z,24.92
2017-02-17T00:35:06.566Z,24.86
2017-02-17T00:35:21.186Z,24.96
2017-02-17T00:35:35.807Z,24.94
2017-02-17T00:35:50.362Z,24.93
2017-02-17T00:36:04.932Z,24.9
2017-02-17T00:36:19.529Z,24.96
2017-02-17T00:36:34.120Z,24.97
2017-02-17T00:36:48.666Z,24.9
2017-02-17T00:37:03.298Z,24.92
2017-02-17T00:37:17.866Z,24.94
2017-02-17T00:37:32.431Z,24.97
2017-02-17T00:37:46.977Z,24.92
2017-02-17T00:38:01.552Z,24.9
2017-02-17T00:38:16.125Z,24.96
2017-02-17T00:38:30.647Z,24.93
2017-02-17T00:38:45.229Z,25.05
2017-02-17T00:38:59.807Z,25.04
2017-02-17T00:39:14.417Z,25.05
2017-02-17T00:39:29.052Z,25.04
2017-02-17T00:39:43.616Z,25.14
2017-02-17T00:39:58.222Z,25.22
2017-02-17T00:40:12.740Z,25.19
2017-02-17T00:40:27.338Z,25.3
2017-02-17T00:40:41.935Z,25.19
2017-02-17T00:40:56.557Z,25.32
2017-02-17T00:41:11.135Z,25.42
2017-02-17T00:41:25.711Z,25.42
2017-02-17T00:41:40.333Z,25.44
2017-02-17T00:41:54.957Z,25.42
2017-02-17T00:42:09.537Z,25.51
2017-02-17T00:42:24.082Z,25.48
2017-02-17T00:42:38.727Z,25.48
2017-02-17T00:42:53.312Z,25.49
2017-02-17T00:43:07.912Z,25.47
2017-02-17T00:43:22.466Z,25.41
2017-02-17T00:43:37.001Z,25.41
2017-02-17T00:43:51.575Z,25.42
2017-02-17T00:44:06.146Z,25.44
2017-02-17T00:44:20.741Z,25.37
2017-02-17T00:44:35.315Z,25.34
2017-02-17T00:44:49.895Z,25.34
2017-02-17T00:45:04.502Z,25.34
2017-02-17T00:45:19.128Z,25.3
2017-02-17T00:45:33.661Z,25.29
2017-02-17T00:45:48.270Z,25.23
2017-02-17T00:46:02.870Z,25.3
2017-02-17T00:46:17.473Z,25.3
2017-02-17T00:46:32.062Z,25.14
2017-02-17T00:46:46.629Z,25.17
2017-02-17T00:47:01.231Z,25.14
2017-02-17T00:47:15.823Z,25.19
2017-02-17T00:47:30.403Z,25.14
2017-02-17T00:47:44.972Z,25.27
2017-02-17T00:47:59.610Z,25.3
2017-02-17T00:48:14.177Z,25.27
2017-02-17T00:48:28.914Z,25.38
2017-02-17T00:48:43.523Z,25.39
2017-02-17T00:48:58.117Z,25.34
2017-02-17T00:49:12.671Z,25.44
2017-02-17T00:49:27.253Z,25.33
2017-02-17T00:49:41.795Z,25.34
2017-02-17T00:49:56.407Z,25.37
2017-02-17T00:50:11.067Z,25.38
2017-02-17T00:50:25.649Z,25.37
2017-02-17T00:50:40.251Z,25.34
2017-02-17T00:50:54.866Z,25.29
2017-02-17T00:51:09.523Z,25.33
2017-02-17T00:51:24.115Z,25.33
2017-02-17T00:51:38.666Z,25.29
2017-02-17T00:51:53.169Z,25.3
2017-02-17T00:52:07.821Z,25.29
2017-02-17T00:52:22.373Z,25.32
2017-02-17T00:52:36.898Z,25.34
2017-02-17T00:52:51.506Z,25.15
2017-02-17T00:53:07.654Z,25.17
2017-02-17T00:53:22.246Z,25.17
2017-02-17T00:53:36.896Z,25.27
2017-02-17T00:53:51.578Z,25.33
2017-02-17T00:54:06.208Z,25.32
2017-02-17T00:54:20.788Z,25.37
2017-02-17T00:54:35.334Z,25.34
2017-02-17T00:54:49.960Z,25.38
2017-02-17T00:55:04.565Z,25.38
2017-02-17T00:55:19.154Z,25.39
2017-02-17T00:55:33.749Z,25.44
2017-02-17T00:55:48.356Z,25.39
2017-02-17T00:56:02.951Z,25.34
2017-02-17T00:56:17.541Z,25.41
2017-02-17T00:56:32.094Z,25.32
2017-02-17T00:56:46.698Z,25.38
2017-02-17T00:57:01.295Z,25.37
2017-02-17T00:57:15.829Z,25.37
2017-02-17T00:57:30.332Z,25.3
2017-02-17T00:57:44.971Z,25.3
2017-02-17T00:57:59.633Z,25.34
2017-02-17T00:58:14.232Z,25.29
2017-02-17T00:58:28.777Z,25.27
2017-02-17T00:58:43.382Z,25.3
2017-02-17T00:58:57.991Z,25.3
2017-02-17T00:59:12.633Z,25.3
2017-02-17T00:59:27.217Z,25.29
2017-02-17T00:59:41.833Z,25.27
2017-02-17T00:59:56.443Z,25.32
2017-02-17T01:00:11.059Z,25.27
2017-02-17T01:00:25.623Z,25.27
2017-02-17T01:00:40.172Z,25.24
2017-02-17T01:00:54.736Z,25.29
2017-02-17T01:01:09.292Z,25.3
2017-02-17T01:01:23.866Z,25.32
2017-02-17T01:01:38.498Z,25.15
2017-02-17T01:01:53.131Z,25.14
2017-02-17T01:02:07.729Z,25.22
2017-02-17T01:02:22.334Z,25.17
2017-02-17T01:02:36.924Z,25.12
2017-02-17T01:02:51.503Z,25.08
2017-02-17T01:03:06.118Z,25.07
2017-02-17T01:03:20.718Z,25.07
2017-02-17T01:03:35.736Z,25.02
2017-02-17T01:03:50.415Z,25.01
2017-02-17T01:04:05.004Z,24.96
2017-02-17T01:04:19.537Z,24.9
2017-02-17T01:04:34.109Z,24.93
2017-02-17T01:04:48.700Z,24.89
2017-02-17T01:05:03.253Z,24.87
2017-02-17T01:05:17.871Z,24.89
2017-02-17T01:05:32.490Z,24.87
2017-02-17T01:05:47.061Z,24.96
2017-02-17T01:06:01.634Z,24.89
2017-02-17T01:06:16.195Z,24.92
2017-02-17T01:06:30.796Z,24.94
2017-02-17T01:06:45.421Z,24.97
2017-02-17T01:07:00.038Z,24.94
2017-02-17T01:07:14.593Z,24.97
2017-02-17T01:07:29.211Z,24.94
2017-02-17T01:07:43.773Z,24.97
2017-02-17T01:07:58.386Z,24.87
2017-02-17T01:08:12.915Z,24.83
2017-02-17T01:08:27.574Z,24.87
2017-02-17T01:08:42.196Z,24.86
2017-02-17T01:08:56.785Z,24.87
2017-02-17T01:09:11.382Z,24.89
2017-02-17T01:09:25.956Z,24.8
2017-02-17T01:09:40.582Z,24.85
2017-02-17T01:09:55.129Z,24.83
2017-02-17T01:10:09.725Z,24.83
2017-02-17T01:10:24.280Z,24.83
2017-02-17T01:10:38.811Z,24.93
2017-02-17T01:10:53.352Z,24.93
2017-02-17T01:11:07.936Z,24.94
2017-02-17T01:11:22.483Z,24.93
2017-02-17T01:11:37.007Z,24.94
2017-02-17T01:11:51.521Z,24.83
2017-02-17T01:12:06.105Z,24.8
2017-02-17T01:12:20.628Z,24.83
2017-02-17T01:12:35.265Z,24.85
2017-02-17T01:12:49.803Z,24.83
2017-02-17T01:13:04.383Z,24.85
2017-02-17T01:13:18.975Z,24.85
2017-02-17T01:13:33.566Z,24.89
2017-02-17T01:13:48.071Z,24.75
2017-02-17T01:14:02.709Z,24.7
2017-02-17T01:14:17.225Z,24.75
2017-02-17T01:14:31.747Z,24.66
2017-02-17T01:14:46.294Z,24.74
2017-02-17T01:15:00.891Z,24.63
2017-02-17T01:15:15.501Z,24.63
2017-02-17T01:15:30.065Z,24.64
2017-02-17T01:15:44.670Z,24.64
2017-02-17T01:15:59.208Z,24.56
2017-02-17T01:16:13.797Z,24.55
2017-02-17T01:16:28.371Z,24.55
2017-02-17T01:16:42.981Z,24.63
2017-02-17T01:16:57.581Z,24.55
2017-02-17T01:17:12.154Z,24.51
2017-02-17T01:17:26.699Z,24.56
2017-02-17T01:17:41.254Z,24.54
2017-02-17T01:17:55.851Z,24.49
2017-02-17T01:18:10.447Z,24.44
2017-02-17T01:18:25.016Z,24.45
2017-02-17T01:18:39.628Z,24.34
2017-02-17T01:18:54.471Z,24.37
2017-02-17T01:19:09.050Z,24.34
2017-02-17T01:19:23.652Z,24.37
2017-02-17T01:19:38.234Z,24.36
2017-02-17T01:19:52.751Z,24.3
2017-02-17T01:20:07.334Z,24.34
2017-02-17T01:20:21.895Z,24.24
2017-02-17T01:20:36.485Z,24.19
2017-02-17T01:20:51.066Z,24.26
2017-02-17T01:21:05.542Z,24.15
2017-02-17T01:21:20.122Z,24.08
2017-02-17T01:21:34.745Z,24.19
2017-02-17T01:21:49.351Z,24.08
2017-02-17T01:22:03.954Z,24.08
2017-02-17T01:22:18.491Z,23.99
2017-02-17T01:22:33.096Z,24.08
2017-02-17T01:22:47.675Z,24.04
2017-02-17T01:23:02.303Z,23.96
2017-02-17T01:23:16.831Z,24.08
2017-02-17T01:23:31.344Z,24.07
2017-02-17T01:23:45.906Z,24.02
2017-02-17T01:24:00.474Z,23.93
2017-02-17T01:24:15.029Z,24.07
2017-02-17T01:24:29.590Z,23.93
2017-02-17T01:24:44.162Z,23.96
2017-02-17T01:24:58.772Z,23.94
2017-02-17T01:25:13.307Z,23.99
2017-02-17T01:25:27.922Z,23.92
2017-02-17T01:25:42.487Z,24.04
2017-02-17T01:25:57.037Z,23.9
2017-02-17T01:26:11.607Z,24.04
2017-02-17T01:26:26.191Z,23.96
2017-02-17T01:26:40.760Z,23.94
2017-02-17T01:26:55.337Z,23.99
2017-02-17T01:27:09.858Z,23.94
2017-02-17T01:27:24.355Z,23.92
2017-02-17T01:27:38.931Z,23.92
2017-02-17T01:27:53.501Z,23.94
2017-02-17T01:28:08.097Z,23.85
2017-02-17T01:28:22.695Z,23.9
2017-02-17T01:28:37.305Z,23.87
2017-02-17T01:28:51.860Z,23.82
2017-02-17T01:29:06.327Z,23.81
2017-02-17T01:29:21.089Z,23.84
2017-02-17T01:29:35.650Z,23.85
2017-02-17T01:29:50.152Z,23.84
2017-02-17T01:30:04.713Z,23.75
2017-02-17T01:30:19.295Z,23.87
2017-02-17T01:30:33.815Z,23.74
2017-02-17T01:30:48.424Z,23.71
2017-02-17T01:31:03.066Z,23.87
2017-02-17T01:31:17.633Z,23.85
2017-02-17T01:31:32.227Z,23.9
2017-02-17T01:31:46.829Z,23.82
2017-02-17T01:32:01.437Z,23.74
2017-02-17T01:32:15.997Z,23.82
2017-02-17T01:32:30.631Z,23.85
2017-02-17T01:32:45.226Z,23.71
2017-02-17T01:32:59.813Z,23.81
2017-02-17T01:33:14.416Z,23.84
2017-02-17T01:33:28.948Z,23.81
2017-02-17T01:33:43.403Z,23.82
2017-02-17T01:33:58.117Z,23.84
2017-02-17T01:34:12.660Z,23.84
2017-02-17T01:34:27.189Z,23.72
2017-02-17T01:34:41.826Z,23.82
2017-02-17T01:34:56.395Z,23.82
2017-02-17T01:35:11.037Z,23.79
2017-02-17T01:35:25.607Z,23.81
2017-02-17T01:35:40.188Z,23.72
2017-02-17T01:35:54.786Z,23.75
2017-02-17T01:36:09.369Z,23.7
2017-02-17T01:36:23.975Z,23.72
2017-02-17T01:36:38.503Z,23.72
2017-02-17T01:36:53.018Z,23.66
2017-02-17T01:37:07.528Z,23.72
2017-02-17T01:37:22.127Z,23.67
2017-02-17T01:37:36.707Z,23.77
2017-02-17T01:37:51.314Z,23.71
2017-02-17T01:38:05.862Z,23.74
2017-02-17T01:38:20.427Z,23.77
2017-02-17T01:38:34.999Z,23.72
2017-02-17T01:38:49.627Z,23.74
2017-02-17T01:39:04.256Z,23.64
2017-02-17T01:39:18.839Z,23.7
2017-02-17T01:39:33.355Z,23.74
2017-02-17T01:39:47.942Z,23.72
2017-02-17T01:40:02.507Z,23.74
2017-02-17T01:40:17.126Z,23.7
2017-02-17T01:40:31.753Z,23.67
2017-02-17T01:40:46.396Z,23.7
2017-02-17T01:41:00.927Z,23.72
2017-02-17T01:41:15.494Z,23.67
2017-02-17T01:41:30.090Z,23.71
2017-02-17T01:41:44.690Z,23.71
2017-02-17T01:41:59.256Z,23.66
2017-02-17T01:42:13.845Z,23.7
2017-02-17T01:42:28.401Z,23.71
2017-02-17T01:42:43.022Z,23.74
2017-02-17T01:42:57.635Z,23.64
2017-02-17T01:43:12.162Z,23.64
2017-02-17T01:43:26.748Z,23.75
2017-02-17T01:43:41.344Z,23.63
2017-02-17T01:43:55.941Z,23.63
2017-02-17T01:44:10.516Z,23.7
2017-02-17T01:44:25.116Z,23.7
2017-02-17T01:44:39.728Z,23.7
2017-02-17T01:44:54.279Z,23.74
2017-02-17T01:45:08.822Z,23.82
2017-02-17T01:45:23.404Z,23.81
2017-02-17T01:45:37.933Z,23.85
2017-02-17T01:45:52.549Z,23.78
2017-02-17T01:46:07.161Z,23.74
2017-02-17T01:46:21.738Z,23.75
2017-02-17T01:46:36.325Z,23.78
2017-02-17T01:46:50.914Z,23.79
2017-02-17T01:47:05.477Z,23.81
2017-02-17T01:47:19.986Z,23.74
2017-02-17T01:47:34.501Z,23.78
2017-02-17T01:47:49.044Z,23.74
2017-02-17T01:48:03.609Z,23.72
2017-02-17T01:48:18.168Z,23.7
2017-02-17T01:48:32.793Z,23.81
2017-02-17T01:48:47.613Z,23.66
2017-02-17T01:49:02.365Z,23.74
2017-02-17T01:49:16.918Z,23.75
2017-02-17T01:49:31.518Z,23.77
2017-02-17T01:49:46.078Z,23.7
2017-02-17T01:50:00.610Z,23.67
2017-02-17T01:50:15.198Z,23.75
2017-02-17T01:50:29.712Z,23.74
2017-02-17T01:50:44.304Z,23.75
2017-02-17T01:50:58.861Z,23.74
2017-02-17T01:51:13.424Z,23.66
2017-02-17T01:51:28.020Z,23.6
2017-02-17T01:51:42.576Z,23.66
2017-02-17T01:51:57.115Z,23.62
2017-02-17T01:52:11.654Z,23.64
2017-02-17T01:52:26.233Z,23.6
2017-02-17T01:52:40.781Z,23.7
2017-02-17T01:52:55.303Z,23.64
2017-02-17T01:53:09.845Z,23.63
2017-02-17T01:53:24.407Z,23.7
2017-02-17T01:53:38.967Z,23.64
2017-02-17T01:53:53.571Z,23.6
2017-02-17T01:54:08.126Z,23.63
2017-02-17T01:54:22.667Z,23.67
2017-02-17T01:54:37.242Z,23.62
2017-02-17T01:54:51.828Z,23.55
2017-02-17T01:55:06.408Z,23.53
2017-02-17T01:55:20.973Z,23.56
2017-02-17T01:55:35.533Z,23.5
2017-02-17T01:55:50.141Z,23.62
2017-02-17T01:56:04.758Z,23.62
2017-02-17T01:56:19.352Z,23.56
2017-02-17T01:56:33.947Z,23.52
2017-02-17T01:56:48.733Z,23.59
2017-02-17T01:57:03.287Z,23.56
2017-02-17T01:57:17.836Z,23.55
2017-02-17T01:57:32.347Z,23.44
2017-02-17T01:57:46.858Z,23.53
2017-02-17T01:58:01.391Z,23.56
2017-02-17T01:58:15.925Z,23.47
2017-02-17T01:58:30.455Z,23.55
2017-02-17T01:58:45.013Z,23.63
2017-02-17T01:58:59.573Z,23.66
2017-02-17T01:59:14.131Z,23.63
2017-02-17T01:59:28.737Z,23.6
2017-02-17T01:59:43.335Z,23.62
2017-02-17T01:59:57.992Z,23.72
2017-02-17T02:00:12.518Z,23.74
2017-02-17T02:00:27.079Z,23.77
2017-02-17T02:00:41.705Z,23.72
2017-02-17T02:00:56.210Z,23.71
2017-02-17T02:01:10.760Z,23.71
2017-02-17T02:01:25.340Z,23.71
2017-02-17T02:01:39.876Z,23.78
2017-02-17T02:01:54.430Z,23.77
2017-02-17T02:02:08.954Z,23.85
2017-02-17T02:02:23.524Z,23.78
2017-02-17T02:02:38.062Z,23.79
2017-02-17T02:02:52.630Z,23.72
2017-02-17T02:03:07.210Z,23.81
2017-02-17T02:03:21.755Z,23.7
2017-02-17T02:03:36.331Z,23.79
2017-02-17T02:03:50.952Z,23.77
2017-02-17T02:04:05.699Z,23.78
2017-02-17T02:04:20.300Z,23.77
2017-02-17T02:04:34.844Z,23.77
2017-02-17T02:04:49.385Z,23.77
2017-02-17T02:05:03.894Z,23.71
2017-02-17T02:05:18.421Z,23.66
2017-02-17T02:05:32.967Z,23.7
2017-02-17T02:05:47.501Z,23.81
2017-02-17T02:06:02.097Z,23.75
2017-02-17T02:06:16.699Z,23.66
2017-02-17T02:06:31.283Z,23.62
2017-02-17T02:06:45.920Z,23.62
2017-02-17T02:07:00.535Z,23.59
2017-02-17T02:07:15.093Z,23.64
2017-02-17T02:07:29.623Z,23.6
2017-02-17T02:07:44.213Z,23.63
2017-02-17T02:07:58.757Z,23.64
2017-02-17T02:08:13.534Z,23.63
2017-02-17T02:08:28.093Z,23.7
2017-02-17T02:08:42.689Z,23.7
2017-02-17T02:08:57.268Z,23.75
2017-02-17T02:09:11.866Z,23.74
2017-02-17T02:09:26.449Z,23.84
2017-02-17T02:09:41.010Z,23.78
2017-02-17T02:09:55.598Z,23.77
2017-02-17T02:10:10.125Z,23.79
2017-02-17T02:10:24.697Z,23.79
2017-02-17T02:10:39.283Z,23.77
2017-02-17T02:10:53.930Z,23.81
2017-02-17T02:11:08.462Z,23.85
2017-02-17T02:11:23.017Z,23.78
2017-02-17T02:11:37.525Z,23.78
2017-02-17T02:11:52.035Z,23.72
2017-02-17T02:12:06.559Z,23.72
2017-02-17T02:12:21.169Z,23.82
2017-02-17T02:12:35.687Z,23.81
2017-02-17T02:12:50.211Z,23.79
2017-02-17T02:13:04.742Z,23.84
2017-02-17T02:13:19.266Z,23.85
2017-02-17T02:13:33.876Z,23.75
2017-02-17T02:13:48.469Z,23.84
2017-02-17T02:14:03.045Z,23.75
2017-02-17T02:14:17.620Z,23.79
2017-02-17T02:14:32.160Z,23.85
2017-02-17T02:14:46.669Z,23.81
2017-02-17T02:15:01.179Z,23.74
2017-02-17T02:15:15.737Z,23.64
2017-02-17T02:15:30.366Z,23.81
2017-02-17T02:15:44.937Z,23.78
2017-02-17T02:15:59.552Z,23.74
2017-02-17T02:16:14.144Z,23.78
2017-02-17T02:16:28.732Z,23.81
2017-02-17T02:16:43.363Z,23.66
2017-02-17T02:16:57.942Z,23.72
2017-02-17T02:17:12.515Z,23.72
2017-02-17T02:17:27.045Z,23.74
2017-02-17T02:17:41.657Z,23.74
2017-02-17T02:17:56.205Z,23.74
2017-02-17T02:18:10.767Z,23.72
2017-02-17T02:18:25.382Z,23.77
2017-02-17T02:18:39.923Z,23.78
2017-02-17T02:18:54.455Z,23.75
2017-02-17T02:19:08.989Z,23.79
2017-02-17T02:19:23.789Z,23.78
2017-02-17T02:19:38.346Z,23.74
2017-02-17T02:19:52.877Z,23.79
2017-02-17T02:20:07.497Z,23.79
2017-02-17T02:20:22.057Z,23.75
2017-02-17T02:20:36.540Z,23.74
2017-02-17T02:20:51.166Z,23.75
2017-02-17T02:21:05.758Z,23.7
2017-02-17T02:21:20.356Z,23.79
2017-02-17T02:21:34.906Z,23.71
2017-02-17T02:21:49.771Z,23.71
2017-02-17T02:22:04.353Z,23.67
2017-02-17T02:22:18.933Z,23.75
2017-02-17T02:22:33.513Z,23.6
2017-02-17T02:22:48.076Z,23.63
2017-02-17T02:23:02.654Z,23.63
2017-02-17T02:23:17.223Z,23.55
2017-02-17T02:23:31.855Z,23.66
2017-02-17T02:23:46.410Z,23.62
2017-02-17T02:24:01.020Z,23.6
2017-02-17T02:24:15.671Z,23.57
2017-02-17T02:24:30.223Z,23.57
2017-02-17T02:24:44.877Z,23.57
2017-02-17T02:24:59.522Z,23.52
2017-02-17T02:25:14.081Z,23.48
2017-02-17T02:25:28.648Z,23.38
2017-02-17T02:25:43.257Z,23.41
2017-02-17T02:25:57.772Z,23.34
2017-02-17T02:26:12.346Z,23.29
2017-02-17T02:26:26.949Z,23.25
2017-02-17T02:26:41.533Z,23.19
2017-02-17T02:26:56.126Z,23.25
2017-02-17T02:27:10.659Z,23.15
2017-02-17T02:27:25.217Z,23.09
2017-02-17T02:27:39.779Z,23.07
2017-02-17T02:27:54.417Z,23.01
2017-02-17T02:28:08.991Z,22.96
2017-02-17T02:28:23.564Z,22.97
2017-02-17T02:28:38.174Z,23
2017-02-17T02:28:52.709Z,22.94
2017-02-17T02:29:07.281Z,22.99
2017-02-17T02:29:21.797Z,22.91
2017-02-17T02:29:36.537Z,22.91
2017-02-17T02:29:51.099Z,22.94
2017-02-17T02:30:05.662Z,22.92
2017-02-17T02:30:20.231Z,22.88
2017-02-17T02:30:34.775Z,22.84
2017-02-17T02:30:49.332Z,22.86
2017-02-17T02:31:03.890Z,22.85
2017-02-17T02:31:18.502Z,22.91
2017-02-17T02:31:33.020Z,22.85
2017-02-17T02:31:47.620Z,22.85
2017-02-17T02:32:02.188Z,22.89
2017-02-17T02:32:16.764Z,22.84
2017-02-17T02:32:31.301Z,22.92
2017-02-17T02:32:45.840Z,22.79
2017-02-17T02:33:00.356Z,22.94
2017-02-17T02:33:14.875Z,22.85
2017-02-17T02:33:29.541Z,22.85
2017-02-17T02:33:44.038Z,22.86
2017-02-17T02:33:58.511Z,22.89
2017-02-17T02:34:13.269Z,22.85
2017-02-17T02:34:28.056Z,22.81
2017-02-17T02:34:42.632Z,22.86
2017-02-17T02:34:57.158Z,22.81
2017-02-17T02:35:11.768Z,22.96
2017-02-17T02:35:26.355Z,22.92
2017-02-17T02:35:40.907Z,22.91
2017-02-17T02:35:55.482Z,22.91
2017-02-17T02:36:10.031Z,22.86
2017-02-17T02:36:24.579Z,22.89
2017-02-17T02:36:39.142Z,22.85
2017-02-17T02:36:53.728Z,22.85
2017-02-17T02:37:08.339Z,22.88
2017-02-17T02:37:22.929Z,22.88
2017-02-17T02:37:37.518Z,22.88
2017-02-17T02:37:52.066Z,22.86
2017-02-17T02:38:06.627Z,22.81
2017-02-17T02:38:21.165Z,22.78
2017-02-17T02:38:35.710Z,22.79
2017-02-17T02:38:50.263Z,22.82
2017-02-17T02:39:04.878Z,22.81
2017-02-17T02:39:19.411Z,22.84
2017-02-17T02:39:34.001Z,22.84
2017-02-17T02:39:48.591Z,22.79
2017-02-17T02:40:03.121Z,22.81
2017-02-17T02:40:17.652Z,22.81
2017-02-17T02:40:32.304Z,22.85
2017-02-17T02:40:46.857Z,22.82
2017-02-17T02:41:01.466Z,22.75
2017-02-17T02:41:15.999Z,22.82
2017-02-17T02:41:30.533Z,22.78
2017-02-17T02:41:45.064Z,22.85
2017-02-17T02:41:59.660Z,22.82
2017-02-17T02:42:14.274Z,22.86
2017-02-17T02:42:28.836Z,22.79
2017-02-17T02:42:43.471Z,22.78
2017-02-17T02:42:58.021Z,22.85
2017-02-17T02:43:12.541Z,22.81
2017-02-17T02:43:27.082Z,22.84
2017-02-17T02:43:41.602Z,22.89
2017-02-17T02:43:56.229Z,22.84
2017-02-17T02:44:10.829Z,22.88
2017-02-17T02:44:25.419Z,22.91
2017-02-17T02:44:40.043Z,22.96
2017-02-17T02:44:54.654Z,22.88
2017-02-17T02:45:09.255Z,22.88
2017-02-17T02:45:23.812Z,22.84
2017-02-17T02:45:38.402Z,22.86
2017-02-17T02:45:53.001Z,22.91
2017-02-17T02:46:07.481Z,22.86
2017-02-17T02:46:22.093Z,22.92
2017-02-17T02:46:36.695Z,22.96
2017-02-17T02:46:51.319Z,22.88
2017-02-17T02:47:05.899Z,22.92
2017-02-17T02:47:20.401Z,22.85
2017-02-17T02:47:34.962Z,22.82
2017-02-17T02:47:49.560Z,22.82
2017-02-17T02:48:04.153Z,22.85
2017-02-17T02:48:18.731Z,22.88
2017-02-17T02:48:33.332Z,22.84
2017-02-17T02:48:47.870Z,22.86
2017-02-17T02:49:02.461Z,22.88
2017-02-17T02:49:17.039Z,22.84
2017-02-17T02:49:31.810Z,22.79
2017-02-17T02:49:46.343Z,22.86
2017-02-17T02:50:00.891Z,22.82
2017-02-17T02:50:15.471Z,22.85
2017-02-17T02:50:30.019Z,22.84
2017-02-17T02:50:44.596Z,22.82
2017-02-17T02:50:59.163Z,22.81
2017-02-17T02:51:13.722Z,22.88
2017-02-17T02:51:28.307Z,22.86
2017-02-17T02:51:42.831Z,22.85
2017-02-17T02:51:57.365Z,22.79
2017-02-17T02:52:11.903Z,22.81
2017-02-17T02:52:26.440Z,22.75
2017-02-17T02:52:40.983Z,22.79
2017-02-17T02:52:55.485Z,22.89
2017-02-17T02:53:10.033Z,22.85
2017-02-17T02:53:24.646Z,22.84
2017-02-17T02:53:39.164Z,22.85
2017-02-17T02:53:53.788Z,22.91
2017-02-17T02:54:08.344Z,22.97
2017-02-17T02:54:22.892Z,22.92
2017-02-17T02:54:37.455Z,22.88
2017-02-17T02:54:52.070Z,23
2017-02-17T02:55:06.660Z,22.94
2017-02-17T02:55:21.197Z,22.96
2017-02-17T02:55:35.743Z,22.92
2017-02-17T02:55:50.276Z,22.92
2017-02-17T02:56:04.771Z,22.82
2017-02-17T02:56:19.337Z,22.85
2017-02-17T02:56:33.886Z,22.88
2017-02-17T02:56:48.427Z,22.86
2017-02-17T02:57:02.962Z,22.88
2017-02-17T02:57:17.458Z,22.94
2017-02-17T02:57:32.030Z,22.88
2017-02-17T02:57:46.604Z,22.96
2017-02-17T02:58:01.206Z,22.94
2017-02-17T02:58:15.759Z,22.97
2017-02-17T02:58:30.339Z,22.92
2017-02-17T02:58:44.954Z,22.94
2017-02-17T02:58:59.515Z,22.94
2017-02-17T02:59:14.068Z,22.92
2017-02-17T02:59:28.648Z,22.88
2017-02-17T02:59:43.174Z,22.96
2017-02-17T02:59:57.732Z,22.94
2017-02-17T03:00:12.343Z,22.97
2017-02-17T03:00:26.989Z,22.96
2017-02-17T03:00:41.544Z,22.92
2017-02-17T03:00:56.143Z,23
2017-02-17T03:01:10.744Z,23
2017-02-17T03:01:25.287Z,23
2017-02-17T03:01:39.874Z,23.01
2017-02-17T03:01:54.449Z,23.07
2017-02-17T03:02:09.056Z,23.09
2017-02-17T03:02:23.659Z,23.1
2017-02-17T03:02:38.209Z,23.09
2017-02-17T03:02:52.799Z,23.09
2017-02-17T03:03:07.349Z,23.14
2017-02-17T03:03:21.960Z,23.12
2017-02-17T03:03:36.501Z,23.12
2017-02-17T03:03:51.022Z,23.09
2017-02-17T03:04:05.628Z,23.09
2017-02-17T03:04:20.203Z,23.09
2017-02-17T03:04:35.889Z,23.12
2017-02-17T03:04:50.439Z,23.07
2017-02-17T03:05:05.023Z,23.09
2017-02-17T03:05:19.547Z,23.14
2017-02-17T03:05:34.137Z,23.09
2017-02-17T03:05:48.623Z,23.1
2017-02-17T03:06:03.138Z,23.09
2017-02-17T03:06:17.704Z,23.1
2017-02-17T03:06:32.255Z,22.99
2017-02-17T03:06:46.809Z,22.99
2017-02-17T03:07:01.379Z,22.92
2017-02-17T03:07:15.973Z,23
2017-02-17T03:07:30.597Z,22.86
2017-02-17T03:07:45.194Z,22.92
2017-02-17T03:07:59.723Z,22.82
2017-02-17T03:08:14.269Z,22.86
2017-02-17T03:08:28.844Z,22.88